Terminal Aerodrome Forecast
Issued by NWS

Home | Current Version | Previous Version | Text Only | Print | Product List | Glossary On
Versions: 1 2 3 4 5 6 7 8 9 10 11 12 13 14
000
FTUS43 KIND 311100
TAFHUF
TAF
KHUF 311122Z 3112/0112 31007KT P6SM SCT050 OVC080
     FM311400 33016G25KT P6SM BKN025 OVC040
      TEMPO 3114/3118 5SM -RA BR
     FM312000 33020G32KT P6SM BKN025 OVC040
      TEMPO 3121/3124 5SM -SHRASN
     FM010600 34015G23KT P6SM SCT025 BKN040=

USA.gov is the U.S. government's official web portal to all federal, state and local government web resources and services.